Time;durP1;ratioP1;P1;durP2;ratioP2;P2;SDS_P1;SDS_P2;PMS_P1;PMS_P2;Temp;Humidity;BMP_temperature;BMP_pressure;BME280_temperature;BME280_humidity;BME280_pressure;Samples;Min_cycle;Max_cycle;Signal;HPM_P1;HPM_P2
2021/05/17 03:00:23;;;;;;;43.30;11.13;;;;;;;18.37;100.00;99150.89;1754176;78;21080;31
2021/05/17 03:03:09;;;;;;;45.93;11.27;;;;;;;18.41;100.00;99144.03;1749861;80;21546;-72
2021/05/17 03:05:42;;;;;;;35.93;10.17;;;;;;;18.41;100.00;99146.67;1749357;80;21607;-78
2021/05/17 03:08:14;;;;;;;47.40;11.17;;;;;;;18.48;100.00;99141.94;1753725;80;21108;-77
2021/05/17 03:10:44;;;;;;;37.33;9.45;;;;;;;18.61;100.00;99142.77;1751373;80;20979;-71
2021/05/17 03:13:18;;;;;;;41.33;10.38;;;;;;;18.75;100.00;99144.36;1750098;80;21422;-73
2021/05/17 03:15:46;;;;;;;36.33;11.03;;;;;;;18.94;100.00;99140.17;1751281;80;21554;-76
2021/05/17 03:18:13;;;;;;;44.13;10.60;;;;;;;19.24;99.23;99135.09;1741876;80;20941;-77
2021/05/17 03:20:40;;;;;;;44.53;10.43;;;;;;;19.59;96.57;99127.62;1750885;80;20941;-78
2021/05/17 03:23:11;;;;;;;44.57;10.00;;;;;;;19.96;91.24;99121.92;1751226;80;21037;-76
2021/05/17 03:25:42;;;;;;;30.37;9.70;;;;;;;20.30;87.45;99116.70;1751477;80;20990;-77
2021/05/17 03:28:09;;;;;;;33.50;9.33;;;;;;;20.61;81.84;99113.90;1751464;80;21025;-76
2021/05/17 03:30:36;;;;;;;45.27;10.63;;;;;;;20.88;76.95;99108.11;1754975;80;21006;-76
2021/05/17 03:33:03;;;;;;;43.67;10.03;;;;;;;21.12;74.98;99116.09;1751957;80;21423;-78
2021/05/17 03:35:31;;;;;;;39.73;8.60;;;;;;;21.37;72.12;99130.98;1748412;80;21012;-79
2021/05/17 03:37:58;;;;;;;41.43;9.00;;;;;;;21.57;69.00;99128.63;1758000;80;21167;-78
2021/05/17 03:40:25;;;;;;;35.47;9.40;;;;;;;21.65;69.04;99118.72;1752532;80;21550;-70
2021/05/17 03:42:52;;;;;;;37.33;8.97;;;;;;;21.66;69.02;99118.97;1753429;80;21067;-77
2021/05/17 03:45:20;;;;;;;31.63;8.87;;;;;;;21.62;69.47;99116.09;1746634;80;21032;-78
2021/05/17 03:47:46;;;;;;;38.70;9.47;;;;;;;21.67;69.78;99106.49;1747743;80;20909;-78
2021/05/17 03:50:14;;;;;;;28.03;8.27;;;;;;;21.74;68.47;99104.28;1752443;80;21094;-79
2021/05/17 03:52:42;;;;;;;34.47;8.87;;;;;;;21.76;69.05;99112.77;1756290;80;20980;-70
2021/05/17 03:55:10;;;;;;;30.07;8.97;;;;;;;21.77;70.07;99105.05;1753485;80;21052;-81
2021/05/17 03:57:37;;;;;;;32.73;8.33;;;;;;;21.72;71.02;99086.55;1756740;80;20968;-77
2021/05/17 04:00:10;;;;;;;34.30;9.70;;;;;;;21.64;73.56;99072.61;1749052;80;21061;-77
2021/05/17 04:02:45;;;;;;;25.60;9.13;;;;;;;21.74;75.59;99075.11;1726150;81;21435;-79
2021/05/17 04:08:12;;;;;;;30.23;9.23;;;;;;;22.55;66.41;99078.48;1776225;79;21040;-76
2021/05/17 04:13:22;;;;;;;26.93;8.57;;;;;;;23.41;58.27;99085.99;1777264;79;21459;-78
2021/05/17 04:15:49;;;;;;;22.83;7.87;;;;;;;23.74;55.54;99074.71;1771846;79;21718;-76
2021/05/17 04:18:20;;;;;;;29.60;7.53;;;;;;;24.10;54.26;99076.61;1765066;79;21159;-75
2021/05/17 04:20:48;;;;;;;23.67;7.75;;;;;;;24.55;51.52;99063.30;1774618;79;21100;-75
2021/05/17 04:23:14;;;;;;;25.30;8.77;;;;;;;24.89;49.75;99059.51;1783095;79;21013;-78
2021/05/17 04:25:43;;;;;;;48.67;32.33;;;;;;;25.17;48.11;99054.77;1774224;79;20973;-76
2021/05/17 04:28:09;;;;;;;55.40;35.67;;;;;;;25.34;45.99;99042.02;1779616;79;21623;-78
2021/05/17 04:30:36;;;;;;;44.53;31.73;;;;;;;25.43;45.38;99036.73;1779120;79;21057;-76
2021/05/17 04:33:03;;;;;;;27.80;16.60;;;;;;;25.58;44.79;99047.51;1780720;78;21038;-78
2021/05/17 04:35:30;;;;;;;26.00;7.50;;;;;;;25.68;43.56;99054.67;1776854;79;20994;-77
2021/05/17 04:37:57;;;;;;;33.60;9.70;;;;;;;25.75;43.30;99046.17;1776754;79;21439;-72
2021/05/17 04:40:24;;;;;;;18.77;7.15;;;;;;;25.91;43.19;99055.34;1776893;80;21075;-77
2021/05/17 04:42:51;;;;;;;20.62;7.30;;;;;;;26.20;42.77;99047.23;1777907;79;20926;-76
2021/05/17 04:45:20;;;;;;;17.37;6.75;;;;;;;26.39;41.55;99050.34;1777344;79;20960;-76
2021/05/17 04:47:46;;;;;;;18.65;6.92;;;;;;;26.49;42.17;99052.48;1775183;80;20938;-70
2021/05/17 04:50:13;;;;;;;20.32;7.22;;;;;;;26.71;40.30;99050.94;1775635;79;21574;-71
2021/05/17 04:52:39;;;;;;;25.88;8.68;;;;;;;26.95;39.78;99046.92;1777328;79;20957;-77
2021/05/17 04:55:07;;;;;;;23.65;7.58;;;;;;;27.18;39.09;99045.58;1775997;79;20937;-76
2021/05/17 04:57:34;;;;;;;19.57;7.05;;;;;;;27.32;38.90;99050.14;1775499;79;21468;-74
2021/05/17 05:00:00;;;;;;;23.67;6.87;;;;;;;27.41;38.17;99058.12;1775124;79;21599;-77
2021/05/17 05:02:27;;;;;;;22.42;7.20;;;;;;;27.40;38.82;99049.87;1774398;79;21071;-78
2021/05/17 05:04:54;;;;;;;19.65;7.58;;;;;;;27.56;37.42;99046.06;1722717;81;21382;-74
2021/05/17 05:07:20;;;;;;;29.72;7.75;;;;;;;27.57;37.24;99052.41;1753193;80;20898;-76
2021/05/17 05:09:48;;;;;;;20.32;6.20;;;;;;;27.52;37.81;99039.80;1752774;80;21585;-75
2021/05/17 05:12:14;;;;;;;22.10;6.78;;;;;;;27.49;36.59;99041.22;1751015;80;21115;-72
2021/05/17 05:14:41;;;;;;;18.65;5.92;;;;;;;27.43;37.08;99038.52;1752340;80;21510;-78
2021/05/17 05:17:08;;;;;;;22.93;6.12;;;;;;;27.45;37.44;99040.30;1753149;80;21437;-76
2021/05/17 05:19:35;;;;;;;23.20;7.58;;;;;;;27.47;37.24;99053.38;1754049;80;20995;-76
2021/05/17 05:22:02;;;;;;;15.00;5.55;;;;;;;27.44;36.18;99049.45;1751975;80;21005;-75
2021/05/17 05:24:29;;;;;;;27.22;6.70;;;;;;;27.44;37.09;99053.46;1744930;80;21040;-68
2021/05/17 05:27:06;;;;;;;22.52;6.55;;;;;;;27.65;35.66;99057.48;1749960;80;21056;-76
2021/05/17 05:29:35;;;;;;;19.80;5.80;;;;;;;27.54;35.55;99046.93;1743172;80;21720;-77
2021/05/17 05:34:29;;;;;;;12.78;5.17;;;;;;;27.58;36.74;99054.01;1752352;80;21047;-75
2021/05/17 05:37:01;;;;;;;13.32;5.85;;;;;;;27.91;36.13;99055.20;1754027;80;21059;-76
2021/05/17 05:39:28;;;;;;;15.80;6.10;;;;;;;28.27;35.28;99066.09;1754035;80;20945;-74
2021/05/17 05:41:54;;;;;;;17.30;5.53;;;;;;;28.38;34.45;99061.69;1752435;80;21085;-74
2021/05/17 05:44:21;;;;;;;23.40;6.83;;;;;;;28.29;35.09;99063.84;1752017;80;21579;-74
2021/05/17 05:46:48;;;;;;;14.90;5.50;;;;;;;28.43;34.73;99057.45;1752718;80;21125;-74
2021/05/17 05:49:14;;;;;;;16.30;6.12;;;;;;;28.58;34.67;99060.84;1751795;80;21060;-77
2021/05/17 05:51:42;;;;;;;15.03;5.80;;;;;;;28.65;34.34;99060.30;1753210;80;20973;-73
2021/05/17 05:54:09;;;;;;;26.93;7.45;;;;;;;28.75;34.32;99063.87;1753097;80;21153;-71
2021/05/17 05:56:36;;;;;;;16.45;6.50;;;;;;;28.79;34.45;99055.39;1751976;80;21008;-77
2021/05/17 05:59:04;;;;;;;21.93;6.80;;;;;;;28.89;34.24;99051.50;1753775;80;21394;-72
2021/05/17 06:01:30;;;;;;;16.12;6.08;;;;;;;29.02;33.88;99067.88;1739720;80;20921;-79
2021/05/17 06:03:57;;;;;;;21.33;7.45;;;;;;;29.00;33.23;99060.14;1714508;81;20929;-76
2021/05/17 06:06:23;;;;;;;23.18;6.42;;;;;;;28.84;33.16;99064.02;1714383;82;22169;-72
2021/05/17 06:08:51;;;;;;;20.02;6.87;;;;;;;28.57;33.46;99059.28;1714945;81;20936;-75
2021/05/17 06:11:18;;;;;;;20.27;6.50;;;;;;;28.37;34.27;99066.24;1715633;81;21490;-77
2021/05/17 06:13:48;;;;;;;20.68;6.40;;;;;;;28.25;34.03;99068.30;1715054;81;21008;-75
2021/05/17 06:16:16;;;;;;;19.67;5.97;;;;;;;28.25;34.03;99068.30;1699367;82;20969;-75
2021/05/17 06:18:44;;;;;;;16.20;5.87;;;;;;;28.21;34.93;99069.30;1714035;82;21573;-76
2021/05/17 06:21:12;;;;;;;19.62;6.55;;;;;;;28.32;34.90;99077.93;1714262;82;20957;-77
2021/05/17 06:23:39;;;;;;;18.15;6.25;;;;;;;28.27;34.72;99080.05;1713746;81;21048;-75
2021/05/17 06:26:07;;;;;;;21.52;6.62;;;;;;;28.31;35.19;99080.39;1713979;82;22763;-72
2021/05/17 06:28:34;;;;;;;18.25;6.12;;;;;;;28.30;34.53;99069.45;1713831;82;21008;-76
2021/05/17 06:31:04;;;;;;;17.37;5.85;;;;;;;28.39;35.39;99061.91;1714747;81;21122;-75
2021/05/17 06:33:31;;;;;;;22.32;6.28;;;;;;;28.65;34.86;99072.38;1714619;81;20901;-78
2021/05/17 06:35:58;;;;;;;16.80;6.65;;;;;;;28.84;34.64;99073.97;1696706;81;20909;-75
2021/05/17 06:38:26;;;;;;;17.77;6.22;;;;;;;28.78;34.69;99073.38;1703100;81;20961;-74
2021/05/17 06:40:54;;;;;;;17.98;5.47;;;;;;;28.65;34.77;99071.81;1695151;81;21114;-77
2021/05/17 06:43:21;;;;;;;17.00;5.75;;;;;;;28.48;35.10;99071.98;1702318;81;21069;-77
2021/05/17 06:45:49;;;;;;;21.25;5.95;;;;;;;28.31;35.62;99071.02;1769640;79;20897;-77
2021/05/17 06:48:16;;;;;;;20.62;5.25;;;;;;;28.32;35.48;99064.53;1780028;79;21544;-74
2021/05/17 06:50:44;;;;;;;21.20;6.15;;;;;;;28.45;36.12;99067.27;1746122;80;21025;-75
2021/05/17 06:53:11;;;;;;;21.02;6.40;;;;;;;28.46;35.55;99066.18;1779952;79;21428;-76
2021/05/17 06:55:57;;;;;;;17.95;6.22;;;;;;;28.29;36.30;99063.84;1770670;79;21125;-77
2021/05/17 06:58:16;;;;;;;17.67;5.50;;;;;;;28.29;36.77;99051.78;1765888;79;20969;-78
2021/05/17 07:00:43;;;;;;;20.02;6.00;;;;;;;28.39;36.68;99050.63;1770323;79;21041;-76
2021/05/17 07:03:11;;;;;;;19.62;6.67;;;;;;;28.36;36.03;99049.36;1788815;79;21630;-73
2021/05/17 07:05:40;;;;;;;14.45;5.42;;;;;;;28.39;36.10;99060.57;1778572;78;21077;-80
2021/05/17 07:13:24;;;;;;;16.73;5.83;;;;;;;28.27;37.43;99029.91;1750593;79;21052;-74
2021/05/17 07:15:51;;;;;;;16.35;5.72;;;;;;;28.43;37.67;99050.75;1762268;79;21633;-74
2021/05/17 07:18:19;;;;;;;15.25;5.70;;;;;;;28.52;37.63;99044.73;1767477;79;20972;-70
2021/05/17 07:26:04;;;;;;;22.35;7.25;;;;;;;28.57;36.67;99073.47;1762884;79;20973;-71
2021/05/17 07:28:30;;;;;;;15.33;5.33;;;;;;;28.15;37.34;99063.37;1751253;79;21032;-80
2021/05/17 07:31:01;;;;;;;14.00;5.28;;;;;;;27.91;38.18;99071.27;1769207;79;20930;-79
2021/05/17 07:33:25;;;;;;;19.02;5.65;;;;;;;27.97;38.40;99071.31;1776290;79;21103;-76
2021/05/17 07:35:51;;;;;;;29.18;7.83;;;;;;;28.17;38.44;99093.28;1769126;79;20905;-72
2021/05/17 07:38:22;;;;;;;21.95;6.33;;;;;;;28.32;37.94;99095.35;1756336;79;22150;-77
2021/05/17 07:40:46;;;;;;;21.25;5.62;;;;;;;28.36;37.87;99116.36;1755443;79;21901;-74
2021/05/17 07:43:14;;;;;;;26.15;7.60;;;;;;;28.28;38.15;99104.38;1766975;79;21534;-77
2021/05/17 07:45:42;;;;;;;23.35;6.15;;;;;;;28.17;37.64;99113.94;1772099;79;21185;-72
2021/05/17 07:48:11;;;;;;;24.10;6.78;;;;;;;28.00;36.64;99123.68;1774521;79;21051;-77
2021/05/17 07:50:38;;;;;;;27.98;8.43;;;;;;;27.81;36.73;99118.77;1775659;79;21069;-75
2021/05/17 07:53:04;;;;;;;29.10;7.87;;;;;;;27.51;37.64;99110.50;1772623;79;21069;-75
2021/05/17 07:55:31;;;;;;;24.98;7.15;;;;;;;27.37;37.87;99118.19;1777931;79;21489;-76
2021/05/17 07:57:57;;;;;;;33.67;8.83;;;;;;;27.41;37.67;99123.13;1774340;79;21076;-71
2021/05/17 08:00:26;;;;;;;16.73;5.90;;;;;;;27.52;37.67;99115.52;1769047;79;21498;-76
2021/05/17 08:02:53;;;;;;;30.52;8.10;;;;;;;27.67;38.22;99114.73;1760247;79;21125;-73
2021/05/17 08:05:20;;;;;;;27.65;7.10;;;;;;;27.76;37.39;99125.64;1763968;79;21010;-78
2021/05/17 08:07:47;;;;;;;24.57;6.62;;;;;;;27.78;38.05;99126.11;1756942;79;21563;-74
2021/05/17 08:10:14;;;;;;;24.63;7.05;;;;;;;27.93;38.48;99140.05;1785693;79;21990;-71
2021/05/17 08:12:41;;;;;;;24.60;7.03;;;;;;;28.05;38.23;99126.72;1730623;80;21588;-74
2021/05/17 08:15:09;;;;;;;19.45;6.33;;;;;;;28.16;38.24;99134.59;1777353;79;21120;-77
2021/05/17 08:17:36;;;;;;;26.80;6.78;;;;;;;28.24;38.51;99129.71;1774461;79;20946;-75
2021/05/17 08:20:04;;;;;;;21.80;6.33;;;;;;;28.13;38.80;99132.00;1777842;79;21069;-71
2021/05/17 08:22:30;;;;;;;22.85;6.10;;;;;;;28.02;39.44;99130.04;1783417;79;21092;-78
2021/05/17 08:24:58;;;;;;;25.12;6.17;;;;;;;27.85;39.93;99123.70;1741556;80;20969;-77
2021/05/17 08:27:24;;;;;;;26.07;6.17;;;;;;;27.68;40.47;99125.11;1777347;79;21573;-76
2021/05/17 08:29:51;;;;;;;21.97;6.87;;;;;;;27.52;41.44;99130.80;1773474;79;20938;-71
2021/05/17 08:32:17;;;;;;;21.48;6.30;;;;;;;27.41;42.49;99145.09;1770067;79;21013;-74
2021/05/17 08:34:44;;;;;;;26.42;7.58;;;;;;;27.32;43.24;99151.05;1776029;79;21051;-74
2021/05/17 08:37:11;;;;;;;28.40;8.13;;;;;;;27.21;43.61;99155.18;1736399;80;21057;-76
2021/05/17 08:39:38;;;;;;;24.43;6.63;;;;;;;27.05;43.82;99141.48;1771576;79;21684;-73
2021/05/17 08:42:05;;;;;;;25.90;7.83;;;;;;;26.72;45.12;99159.44;1773853;79;21091;-71
2021/05/17 08:44:35;;;;;;;24.07;7.10;;;;;;;26.46;47.32;99149.32;1764895;79;21041;-76
2021/05/17 08:47:01;;;;;;;29.57;7.63;;;;;;;26.35;49.47;99165.63;1767172;79;21161;-73
2021/05/17 08:49:28;;;;;;;26.13;8.80;;;;;;;26.42;50.40;99165.95;1767586;79;21029;-77
2021/05/17 08:51:55;;;;;;;23.77;6.90;;;;;;;26.51;50.56;99180.66;1778611;79;20935;-76
2021/05/17 08:54:22;;;;;;;27.93;7.50;;;;;;;26.60;49.79;99176.67;1770613;79;20918;-71
2021/05/17 08:56:49;;;;;;;25.77;8.03;;;;;;;26.56;51.01;99175.73;1775060;79;21035;-77
2021/05/17 08:59:20;;;;;;;31.13;7.60;;;;;;;26.62;52.08;99180.58;1772885;79;21077;-76
2021/05/17 09:01:45;;;;;;;26.63;7.80;;;;;;;26.77;54.17;99173.97;1772930;79;21012;-78
2021/05/17 09:04:15;;;;;;;24.87;6.70;;;;;;;26.89;53.28;99171.42;1773030;79;21705;-72
2021/05/17 09:06:48;;;;;;;26.20;8.00;;;;;;;27.10;51.03;99157.39;1774801;79;21057;-77
2021/05/17 09:09:26;;;;;;;27.43;7.47;;;;;;;27.31;51.57;99154.25;1767049;79;20938;-77
2021/05/17 09:12:01;;;;;;;33.97;7.83;;;;;;;27.55;50.05;99154.25;1780872;79;21044;-75
2021/05/17 09:14:28;;;;;;;32.37;8.23;;;;;;;27.67;48.90;99154.34;1772722;79;21288;-78
2021/05/17 09:16:58;;;;;;;33.20;9.40;;;;;;;27.74;48.42;99142.59;1775450;79;20894;-75
2021/05/17 09:19:26;;;;;;;36.23;8.13;;;;;;;27.75;48.66;99152.75;1775712;79;21492;-75
2021/05/17 09:22:23;;;;;;;23.33;7.73;;;;;;;27.69;50.15;99152.66;1773506;80;20965;-71
2021/05/17 09:24:50;;;;;;;26.95;8.28;;;;;;;27.77;51.35;99148.65;1768688;79;21252;-78
2021/05/17 09:27:30;;;;;;;25.25;7.92;;;;;;;27.95;51.47;99145.28;1777508;79;21559;-75
2021/05/17 09:30:02;;;;;;;28.52;8.68;;;;;;;27.92;51.74;99141.13;1773023;79;20917;-75
2021/05/17 09:32:36;;;;;;;21.20;7.22;;;;;;;27.92;49.80;99141.94;1764555;79;20973;-76
2021/05/17 09:35:07;;;;;;;30.15;7.55;;;;;;;27.92;51.02;99145.15;1771770;80;21001;-78
2021/05/17 09:38:00;;;;;;;22.55;7.75;;;;;;;27.92;51.80;99143.81;1770073;79;22041;-77
2021/05/17 09:40:32;;;;;;;21.42;7.30;;;;;;;28.05;53.25;99136.88;1772555;80;20965;-77
2021/05/17 09:43:05;;;;;;;25.27;7.83;;;;;;;28.40;54.20;99129.92;1771413;79;20946;-73
2021/05/17 09:45:40;;;;;;;30.25;7.70;;;;;;;28.71;53.08;99126.78;1772593;80;22056;-76
2021/05/17 09:48:23;;;;;;;31.20;7.62;;;;;;;28.92;49.25;99131.31;1773510;79;21049;-80
2021/05/17 09:51:02;;;;;;;21.33;6.92;;;;;;;28.90;47.82;99128.16;1770793;80;21097;-77
2021/05/17 09:53:39;;;;;;;21.10;7.42;;;;;;;28.74;47.75;99126.68;1772380;79;21571;-79
2021/05/17 09:56:15;;;;;;;21.95;7.60;;;;;;;28.51;50.11;99137.00;1772457;79;20954;-79
2021/05/17 09:58:47;;;;;;;26.23;7.22;;;;;;;28.42;54.31;99137.65;1772524;79;21049;-77
2021/05/17 10:01:28;;;;;;;19.17;6.25;;;;;;;28.60;56.62;99133.14;1772420;79;21615;-78
2021/05/17 10:03:55;;;;;;;23.25;7.03;;;;;;;28.94;56.30;99130.41;1775735;79;21310;-77
2021/05/17 10:06:24;;;;;;;24.60;7.45;;;;;;;29.07;55.33;99122.09;1775421;79;21499;-73
2021/05/17 10:08:52;;;;;;;24.35;6.83;;;;;;;29.16;58.35;99113.92;1772743;79;22405;-75
2021/05/17 10:11:20;;;;;;;20.10;7.42;;;;;;;29.53;56.29;99112.02;1767888;78;20977;-76
2021/05/17 10:13:46;;;;;;;26.15;6.67;;;;;;;29.77;54.57;99120.62;1785271;79;21068;-78
2021/05/17 10:16:16;;;;;;;20.65;6.72;;;;;;;29.90;54.38;99128.69;1782825;78;21143;-74
2021/05/17 10:18:44;;;;;;;25.02;7.45;;;;;;;30.18;52.79;99134.89;1783553;79;21365;-83
2021/05/17 10:21:13;;;;;;;19.35;5.80;;;;;;;30.58;50.41;99131.95;1785483;78;21543;-78
2021/05/17 10:23:41;;;;;;;24.57;7.30;;;;;;;30.68;50.86;99135.46;1762355;79;21012;-79
2021/05/17 10:26:20;;;;;;;22.82;6.37;;;;;;;30.77;50.41;99131.53;1759525;79;20925;-76
2021/05/17 10:28:51;;;;;;;19.57;5.50;;;;;;;30.78;52.04;99125.58;1737414;79;21085;-78
2021/05/17 10:31:20;;;;;;;20.10;6.92;;;;;;;31.06;51.55;99130.88;1736334;79;20966;-75
2021/05/17 10:34:03;;;;;;;18.52;5.85;;;;;;;31.41;50.18;99127.53;1746243;79;21000;-80
2021/05/17 10:36:55;;;;;;;25.32;6.25;;;;;;;31.71;48.32;99125.91;1750099;79;21138;-79
2021/05/17 10:39:38;;;;;;;27.13;7.67;;;;;;;32.05;46.49;99134.34;1758852;79;20933;-75
2021/05/17 10:48:22;;;;;;;22.30;7.15;;;;;;;32.48;45.46;99155.44;1763105;80;21017;-79
2021/05/17 10:51:16;;;;;;;22.15;7.35;;;;;;;32.56;44.11;99138.81;1761762;80;21338;-80
2021/05/17 10:53:55;;;;;;;23.00;8.08;;;;;;;32.55;43.89;99145.36;1737705;79;21621;-71
2021/05/17 10:56:57;;;;;;;20.85;6.70;;;;;;;32.42;44.36;99138.75;1773306;79;21545;-77
2021/05/17 11:02:25;;;;;;;21.80;7.75;;;;;;;32.74;43.56;99139.15;1772917;79;21511;-77
2021/05/17 11:05:15;;;;;;;23.70;7.65;;;;;;;32.73;44.03;99133.52;1772597;79;20938;-78
2021/05/17 11:07:52;;;;;;;23.87;8.08;;;;;;;32.80;43.88;99133.64;1771560;79;22285;-79
2021/05/17 11:10:27;;;;;;;25.65;7.95;;;;;;;32.76;43.31;99152.47;1777536;79;21594;-77
2021/05/17 11:13:05;;;;;;;32.80;8.65;;;;;;;32.50;43.11;99159.89;1776247;79;20983;-74
2021/05/17 11:15:57;;;;;;;24.82;7.80;;;;;;;32.13;43.89;99164.36;1775548;79;21005;-77
2021/05/17 11:18:38;;;;;;;23.57;7.25;;;;;;;31.61;45.56;99175.50;1764373;80;20962;-75
2021/05/17 11:21:25;;;;;;;26.05;8.98;;;;;;;31.09;49.40;99188.06;1777501;79;20982;-74
2021/05/17 11:23:59;;;;;;;29.63;8.18;;;;;;;30.81;53.51;99193.50;1776051;79;22132;-82
2021/05/17 11:26:29;;;;;;;32.13;9.08;;;;;;;30.49;54.70;99195.28;1777197;80;20984;-76
2021/05/17 11:28:59;;;;;;;25.00;8.10;;;;;;;30.21;57.59;99201.41;1777081;79;20977;-74
2021/05/17 11:31:42;;;;;;;27.67;9.23;;;;;;;29.98;59.55;99206.47;1778016;79;21065;-75
2021/05/17 11:34:07;;;;;;;22.60;8.33;;;;;;;29.75;62.72;99206.72;1775348;79;21080;-75
2021/05/17 11:36:47;;;;;;;24.20;8.30;;;;;;;29.42;65.59;99217.52;1775345;79;21069;-75
2021/05/17 11:39:23;;;;;;;29.07;9.58;;;;;;;28.95;72.09;99207.89;1776228;79;20922;-79
2021/05/17 11:42:03;;;;;;;29.35;8.30;;;;;;;28.60;77.73;99220.81;1771912;80;20926;-75
2021/05/17 11:44:54;;;;;;;32.88;8.58;;;;;;;28.34;81.40;99216.43;1776972;79;21567;-73
2021/05/17 11:47:25;;;;;;;29.40;8.18;;;;;;;28.11;80.83;99203.90;1774900;79;20970;-75
2021/05/17 11:49:53;;;;;;;29.87;8.85;;;;;;;27.76;86.20;99200.61;1779403;79;21692;-74
2021/05/17 11:52:22;;;;;;;31.53;7.83;;;;;;;27.54;91.08;99211.55;1771199;79;20910;-75
2021/05/17 11:54:57;;;;;;;40.13;8.47;;;;;;;27.39;92.10;99200.84;1777290;79;20941;-74
2021/05/17 11:57:31;;;;;;;33.83;9.33;;;;;;;27.28;93.16;99205.76;1770392;79;21061;-76
2021/05/17 12:00:21;;;;;;;26.67;8.93;;;;;;;27.22;93.95;99204.34;1777772;79;21057;-76
2021/05/17 12:02:52;;;;;;;30.60;9.07;;;;;;;27.12;96.71;99210.03;1776943;79;21119;-76
2021/05/17 12:05:21;;;;;;;26.07;10.63;;;;;;;26.98;100.00;99205.41;1744703;79;21656;-73
2021/05/17 12:07:55;;;;;;;30.80;8.40;;;;;;;26.83;100.00;99203.45;1747599;80;21280;-75
2021/05/17 12:10:22;;;;;;;29.07;9.33;;;;;;;26.73;100.00;99206.45;1744210;80;21523;-77
2021/05/17 12:12:51;;;;;;;25.03;8.47;;;;;;;26.61;100.00;99195.61;1730250;82;21114;-75
2021/05/17 12:15:19;;;;;;;36.93;9.27;;;;;;;26.48;100.00;99187.19;1738672;80;21660;-76
2021/05/17 12:17:45;;;;;;;37.30;10.50;;;;;;;26.30;100.00;99191.17;1737836;80;22001;-72
2021/05/17 12:20:15;;;;;;;33.73;9.13;;;;;;;26.11;100.00;99188.80;1726034;80;21413;-76
2021/05/17 12:22:45;;;;;;;33.33;10.07;;;;;;;25.99;100.00;99181.13;1743149;80;20972;-76
2021/05/17 12:25:17;;;;;;;31.65;9.58;;;;;;;25.95;100.00;99183.67;1733427;80;21003;-75
2021/05/17 12:27:45;;;;;;;33.43;9.73;;;;;;;25.99;100.00;99180.61;1732664;80;21698;-75
2021/05/17 12:30:24;;;;;;;39.73;10.70;;;;;;;26.01;100.00;99170.94;1721406;82;21940;-76
2021/05/17 12:33:01;;;;;;;41.17;11.23;;;;;;;26.00;100.00;99169.38;1725994;81;21022;-72
2021/05/17 12:35:37;;;;;;;38.77;10.57;;;;;;;25.93;100.00;99175.17;1733230;82;21090;-73
2021/05/17 12:38:15;;;;;;;36.87;11.43;;;;;;;25.92;100.00;99174.38;1733186;81;21095;-74
2021/05/17 12:40:50;;;;;;;44.50;10.98;;;;;;;26.03;100.00;99168.20;1733102;80;21589;-78
2021/05/17 12:43:26;;;;;;;27.63;9.80;;;;;;;26.13;100.00;99167.88;1731533;80;21054;-77
2021/05/17 12:46:01;;;;;;;31.70;9.03;;;;;;;26.25;100.00;99153.13;1732119;81;21082;-73
2021/05/17 12:48:41;;;;;;;36.23;10.27;;;;;;;26.32;100.00;99171.59;1732395;81;20982;-73
2021/05/17 12:51:25;;;;;;;44.30;10.37;;;;;;;26.36;100.00;99167.19;1733262;81;21356;-74
2021/05/17 12:53:56;;;;;;;31.50;9.13;;;;;;;26.38;100.00;99159.66;1733522;81;21648;-70
2021/05/17 12:56:28;;;;;;;;;;;;;;;26.54;100.00;99160.55;1730083;81;21550;-74
2021/05/17 12:58:54;;;;;;;23.20;7.87;;;;;;;26.80;100.00;99161.86;1733350;81;20465;-75
2021/05/17 13:01:22;;;;;;;24.47;8.07;;;;;;;27.03;100.00;99165.89;1734064;81;21565;-73
2021/05/17 13:03:55;;;;;;;22.60;6.50;;;;;;;27.21;100.00;99160.53;1733992;81;21055;-72
2021/05/17 13:06:27;;;;;;;21.77;8.10;;;;;;;27.38;100.00;99166.58;1736980;80;21076;-74
2021/05/17 13:09:10;;;;;;;18.30;6.37;;;;;;;27.56;100.00;99163.84;1737972;82;21039;-76
2021/05/17 13:11:41;;;;;;;16.53;6.80;;;;;;;27.74;100.00;99158.66;1736712;82;20997;-73
2021/05/17 13:14:23;;;;;;;13.87;6.03;;;;;;;27.88;100.00;99155.20;1738070;82;20922;-74
2021/05/17 13:17:00;;;;;;;16.90;6.00;;;;;;;28.09;100.00;99159.22;1738060;80;20982;-76
2021/05/17 13:30:58;;;;;;;13.22;5.78;;;;;;;28.77;98.03;99153.63;1735226;81;20934;-76
2021/05/17 13:33:36;;;;;;;12.65;5.45;;;;;;;28.85;99.03;99147.95;1739210;81;21073;-74
2021/05/17 13:36:08;;;;;;;10.20;5.05;;;;;;;28.85;98.31;99144.70;1737711;80;21661;-74
2021/05/17 13:38:41;;;;;;;12.20;5.47;;;;;;;28.84;99.12;99139.68;1735781;81;21142;-73
2021/05/17 13:41:08;;;;;;;11.40;5.35;;;;;;;28.95;97.53;99146.75;1734114;80;21445;-75
2021/05/17 13:43:35;;;;;;;12.20;5.37;;;;;;;29.19;91.44;99140.66;1725263;81;20978;-69
2021/05/17 13:46:03;;;;;;;9.13;6.22;;;;;;;29.39;86.23;99143.02;1717801;80;21076;-73
2021/05/17 13:48:30;;;;;;;10.28;5.47;;;;;;;29.44;81.29;99150.86;1743956;80;20900;-73
2021/05/17 13:50:56;;;;;;;11.30;5.37;;;;;;;29.49;81.99;99152.75;1739255;80;22061;-74
2021/05/17 13:53:23;;;;;;;11.70;6.67;;;;;;;29.52;76.40;99168.20;1719506;82;21336;-75
2021/05/17 13:55:50;;;;;;;10.75;5.25;;;;;;;29.47;74.35;99167.62;1738330;80;21084;-73
2021/05/17 13:58:16;;;;;;;11.30;5.55;;;;;;;29.32;75.30;99160.48;1744963;81;21082;-76
2021/05/17 14:00:44;;;;;;;10.25;5.67;;;;;;;29.17;77.52;99167.03;1730961;81;20962;-71
2021/05/17 14:03:15;;;;;;;14.65;6.90;;;;;;;29.00;78.32;99162.66;1732986;81;21017;-76
2021/05/17 14:05:40;;;;;;;11.95;5.83;;;;;;;28.79;78.04;99159.45;1743809;79;21583;-70
2021/05/17 14:08:07;;;;;;;10.88;5.78;;;;;;;28.53;79.48;99160.26;1754718;80;21049;-76
2021/05/17 14:10:33;;;;;;;16.52;6.10;;;;;;;28.29;82.55;99161.66;1756286;80;21709;-68
2021/05/17 14:13:00;;;;;;;14.65;5.58;;;;;;;28.15;84.15;99169.20;1743210;80;21491;-73
2021/05/17 14:15:27;;;;;;;13.55;6.42;;;;;;;28.03;87.02;99175.80;1774920;79;21355;-73
2021/05/17 14:17:54;;;;;;;13.85;6.33;;;;;;;27.92;88.27;99173.27;1769769;79;21590;-73
2021/05/17 14:20:21;;;;;;;12.20;5.60;;;;;;;27.73;91.15;99179.83;1766777;79;20985;-73
2021/05/17 14:22:51;;;;;;;15.95;6.90;;;;;;;27.55;94.90;99191.73;1755730;79;21083;-68
2021/05/17 14:25:17;;;;;;;21.77;7.33;;;;;;;27.35;96.04;99189.19;1753560;79;21390;-73
2021/05/17 14:27:44;;;;;;;19.77;7.90;;;;;;;27.14;97.51;99206.50;1747728;79;20973;-74
2021/05/17 14:30:14;;;;;;;18.43;8.30;;;;;;;26.95;100.00;99213.50;1758484;79;21583;-75
2021/05/17 14:32:41;;;;;;;18.03;8.40;;;;;;;26.75;100.00;99223.52;1772576;79;21002;-74
2021/05/17 14:35:08;;;;;;;18.50;9.50;;;;;;;26.54;100.00;99232.70;1760097;79;21168;-74
2021/05/17 14:37:35;;;;;;;17.87;9.10;;;;;;;26.31;100.00;99240.83;1757474;80;21097;-72
2021/05/17 14:40:05;;;;;;;18.27;9.00;;;;;;;26.12;100.00;99237.09;1757358;80;21518;-72
2021/05/17 14:42:32;;;;;;;15.33;8.67;;;;;;;25.94;100.00;99238.93;1746096;80;21594;-73
2021/05/17 14:44:58;;;;;;;17.37;8.43;;;;;;;25.76;100.00;99253.83;1719631;80;20976;-72
2021/05/17 14:47:25;;;;;;;14.00;7.57;;;;;;;25.57;100.00;99259.39;1752792;80;21040;-74
2021/05/17 14:49:52;;;;;;;20.27;8.70;;;;;;;25.38;100.00;99259.61;1754183;80;20969;-74
2021/05/17 14:52:18;;;;;;;17.30;9.03;;;;;;;25.19;100.00;99262.47;1752604;80;20934;-73
2021/05/17 14:54:45;;;;;;;16.10;8.57;;;;;;;25.02;100.00;99245.02;1752644;80;22102;-74
2021/05/17 14:57:11;;;;;;;13.73;8.20;;;;;;;24.86;100.00;99233.92;1769787;79;21538;-69
2021/05/17 14:59:38;;;;;;;18.90;9.13;;;;;;;24.74;100.00;99241.13;1776783;79;22352;-75
2021/05/17 15:02:05;;;;;;;12.13;7.63;;;;;;;24.59;100.00;99227.61;1779086;79;21083;-71
2021/05/17 15:04:32;;;;;;;19.57;8.03;;;;;;;24.41;100.00;99218.66;1775715;79;20914;-76
2021/05/17 15:06:58;;;;;;;14.53;8.13;;;;;;;24.23;100.00;99224.88;1771684;79;21969;-74
2021/05/17 15:09:25;;;;;;;16.50;9.60;;;;;;;24.06;100.00;99213.52;1776630;79;21608;-76
2021/05/17 15:11:53;;;;;;;26.67;15.17;;;;;;;23.92;100.00;99204.75;1782240;79;21402;-78
2021/05/17 15:14:19;;;;;;;18.63;11.40;;;;;;;23.81;100.00;99190.86;1781150;79;20961;-71
2021/05/17 15:16:48;;;;;;;17.27;8.93;;;;;;;23.75;100.00;99187.52;1779072;79;21919;-77